sensor_id;sensor_type;location;lat;lon;timestamp;P1;durP1;ratioP1;P2;durP2;ratioP2
45033;SDS011;30771;47.988;-4.186;2024-03-08T00:00:34;5.53;;;2.78;;
45033;SDS011;30771;47.988;-4.186;2024-03-08T00:03:01;6.05;;;3.10;;
45033;SDS011;30771;47.988;-4.186;2024-03-08T00:05:29;6.10;;;3.15;;
45033;SDS011;30771;47.988;-4.186;2024-03-08T00:07:56;5.63;;;3.13;;
45033;SDS011;30771;47.988;-4.186;2024-03-08T00:10:23;3.53;;;2.60;;
45033;SDS011;30771;47.988;-4.186;2024-03-08T00:12:53;3.85;;;2.80;;
45033;SDS011;30771;47.988;-4.186;2024-03-08T00:15:20;4.13;;;2.88;;
45033;SDS011;30771;47.988;-4.186;2024-03-08T00:17:49;4.65;;;2.97;;
45033;SDS011;30771;47.988;-4.186;2024-03-08T00:20:16;6.95;;;2.90;;
45033;SDS011;30771;47.988;-4.186;2024-03-08T00:22:46;4.40;;;2.80;;
45033;SDS011;30771;47.988;-4.186;2024-03-08T00:25:14;3.88;;;3.22;;
45033;SDS011;30771;47.988;-4.186;2024-03-08T00:27:41;4.63;;;2.97;;
45033;SDS011;30771;47.988;-4.186;2024-03-08T00:30:08;4.32;;;3.00;;
45033;SDS011;30771;47.988;-4.186;2024-03-08T00:32:35;4.90;;;3.17;;
45033;SDS011;30771;47.988;-4.186;2024-03-08T00:35:04;5.55;;;3.40;;
45033;SDS011;30771;47.988;-4.186;2024-03-08T00:37:34;6.80;;;3.60;;
45033;SDS011;30771;47.988;-4.186;2024-03-08T00:40:01;5.20;;;3.08;;
45033;SDS011;30771;47.988;-4.186;2024-03-08T00:42:27;7.38;;;3.35;;
45033;SDS011;30771;47.988;-4.186;2024-03-08T00:44:54;4.78;;;3.20;;
45033;SDS011;30771;47.988;-4.186;2024-03-08T00:47:21;5.68;;;3.38;;
45033;SDS011;30771;47.988;-4.186;2024-03-08T00:49:48;7.43;;;3.90;;
45033;SDS011;30771;47.988;-4.186;2024-03-08T00:52:14;4.85;;;3.40;;
45033;SDS011;30771;47.988;-4.186;2024-03-08T00:54:41;6.35;;;3.22;;
45033;SDS011;30771;47.988;-4.186;2024-03-08T00:57:10;4.85;;;3.40;;
45033;SDS011;30771;47.988;-4.186;2024-03-08T00:59:38;5.97;;;3.53;;
45033;SDS011;30771;47.988;-4.186;2024-03-08T01:02:05;4.30;;;3.15;;
45033;SDS011;30771;47.988;-4.186;2024-03-08T01:04:32;7.28;;;3.70;;
45033;SDS011;30771;47.988;-4.186;2024-03-08T01:06:59;4.75;;;3.65;;
45033;SDS011;30771;47.988;-4.186;2024-03-08T01:09:26;5.75;;;3.53;;
45033;SDS011;30771;47.988;-4.186;2024-03-08T01:11:54;5.85;;;3.53;;
45033;SDS011;30771;47.988;-4.186;2024-03-08T01:14:24;4.80;;;3.90;;
45033;SDS011;30771;47.988;-4.186;2024-03-08T01:16:58;4.88;;;3.33;;
45033;SDS011;30771;47.988;-4.186;2024-03-08T01:19:25;5.82;;;3.75;;
45033;SDS011;30771;47.988;-4.186;2024-03-08T01:21:52;7.15;;;3.45;;
45033;SDS011;30771;47.988;-4.186;2024-03-08T01:24:19;5.43;;;3.30;;
45033;SDS011;30771;47.988;-4.186;2024-03-08T01:26:45;6.43;;;3.63;;
45033;SDS011;30771;47.988;-4.186;2024-03-08T01:29:13;6.30;;;3.50;;
45033;SDS011;30771;47.988;-4.186;2024-03-08T01:31:40;6.28;;;3.70;;
45033;SDS011;30771;47.988;-4.186;2024-03-08T01:34:07;6.28;;;3.67;;
45033;SDS011;30771;47.988;-4.186;2024-03-08T01:36:33;5.38;;;3.72;;
45033;SDS011;30771;47.988;-4.186;2024-03-08T01:39:00;5.47;;;3.90;;
45033;SDS011;30771;47.988;-4.186;2024-03-08T01:41:27;4.68;;;3.65;;
45033;SDS011;30771;47.988;-4.186;2024-03-08T01:43:56;4.50;;;3.45;;
45033;SDS011;30771;47.988;-4.186;2024-03-08T01:46:23;6.63;;;3.85;;
45033;SDS011;30771;47.988;-4.186;2024-03-08T01:48:50;4.88;;;3.83;;
45033;SDS011;30771;47.988;-4.186;2024-03-08T01:51:18;7.03;;;3.90;;
45033;SDS011;30771;47.988;-4.186;2024-03-08T01:53:45;4.90;;;3.60;;
45033;SDS011;30771;47.988;-4.186;2024-03-08T01:56:13;4.68;;;3.33;;
45033;SDS011;30771;47.988;-4.186;2024-03-08T01:58:41;5.75;;;3.78;;
45033;SDS011;30771;47.988;-4.186;2024-03-08T02:01:13;5.03;;;3.50;;
45033;SDS011;30771;47.988;-4.186;2024-03-08T02:03:43;5.60;;;3.60;;
45033;SDS011;30771;47.988;-4.186;2024-03-08T02:06:11;4.32;;;3.50;;
45033;SDS011;30771;47.988;-4.186;2024-03-08T02:08:41;6.75;;;3.95;;
45033;SDS011;30771;47.988;-4.186;2024-03-08T02:11:12;5.88;;;4.05;;
45033;SDS011;30771;47.988;-4.186;2024-03-08T02:13:40;6.07;;;3.88;;
45033;SDS011;30771;47.988;-4.186;2024-03-08T02:16:06;5.63;;;3.75;;
45033;SDS011;30771;47.988;-4.186;2024-03-08T02:18:35;5.68;;;3.47;;
45033;SDS011;30771;47.988;-4.186;2024-03-08T02:21:03;6.35;;;3.35;;
45033;SDS011;30771;47.988;-4.186;2024-03-08T02:23:31;6.28;;;3.97;;
45033;SDS011;30771;47.988;-4.186;2024-03-08T02:25:59;4.53;;;3.30;;
45033;SDS011;30771;47.988;-4.186;2024-03-08T02:28:26;5.47;;;3.30;;
45033;SDS011;30771;47.988;-4.186;2024-03-08T02:30:53;6.18;;;3.72;;
45033;SDS011;30771;47.988;-4.186;2024-03-08T02:33:24;5.97;;;3.88;;
45033;SDS011;30771;47.988;-4.186;2024-03-08T02:35:52;7.05;;;4.15;;
45033;SDS011;30771;47.988;-4.186;2024-03-08T02:38:20;8.80;;;3.90;;
45033;SDS011;30771;47.988;-4.186;2024-03-08T02:40:49;6.15;;;4.10;;
45033;SDS011;30771;47.988;-4.186;2024-03-08T02:45:44;6.25;;;4.07;;
45033;SDS011;30771;47.988;-4.186;2024-03-08T02:48:12;7.97;;;4.18;;
45033;SDS011;30771;47.988;-4.186;2024-03-08T02:50:40;6.93;;;4.05;;
45033;SDS011;30771;47.988;-4.186;2024-03-08T02:53:09;6.15;;;3.88;;
45033;SDS011;30771;47.988;-4.186;2024-03-08T02:55:37;5.93;;;4.30;;
45033;SDS011;30771;47.988;-4.186;2024-03-08T02:58:04;6.00;;;4.15;;
45033;SDS011;30771;47.988;-4.186;2024-03-08T03:00:31;5.57;;;3.97;;
45033;SDS011;30771;47.988;-4.186;2024-03-08T03:02:59;5.70;;;4.43;;
45033;SDS011;30771;47.988;-4.186;2024-03-08T03:05:29;6.03;;;4.03;;
45033;SDS011;30771;47.988;-4.186;2024-03-08T03:07:56;8.27;;;4.55;;
45033;SDS011;30771;47.988;-4.186;2024-03-08T03:10:24;8.02;;;4.20;;
45033;SDS011;30771;47.988;-4.186;2024-03-08T03:12:52;7.00;;;4.03;;
45033;SDS011;30771;47.988;-4.186;2024-03-08T03:15:19;7.53;;;4.35;;
45033;SDS011;30771;47.988;-4.186;2024-03-08T03:17:47;6.93;;;4.03;;
45033;SDS011;30771;47.988;-4.186;2024-03-08T03:20:14;5.53;;;4.10;;
45033;SDS011;30771;47.988;-4.186;2024-03-08T03:22:45;5.90;;;4.20;;
45033;SDS011;30771;47.988;-4.186;2024-03-08T03:25:14;6.88;;;3.75;;
45033;SDS011;30771;47.988;-4.186;2024-03-08T03:27:41;8.20;;;4.45;;
45033;SDS011;30771;47.988;-4.186;2024-03-08T03:30:08;6.22;;;4.30;;
45033;SDS011;30771;47.988;-4.186;2024-03-08T03:32:48;6.05;;;4.15;;
45033;SDS011;30771;47.988;-4.186;2024-03-08T03:35:17;7.45;;;5.03;;
45033;SDS011;30771;47.988;-4.186;2024-03-08T03:37:44;7.68;;;4.65;;
45033;SDS011;30771;47.988;-4.186;2024-03-08T03:40:17;15.13;;;5.10;;
45033;SDS011;30771;47.988;-4.186;2024-03-08T03:42:47;5.30;;;3.78;;
45033;SDS011;30771;47.988;-4.186;2024-03-08T03:45:13;6.63;;;4.75;;
45033;SDS011;30771;47.988;-4.186;2024-03-08T03:47:42;7.00;;;4.63;;
45033;SDS011;30771;47.988;-4.186;2024-03-08T03:50:09;8.55;;;4.95;;
45033;SDS011;30771;47.988;-4.186;2024-03-08T03:52:36;8.52;;;3.92;;
45033;SDS011;30771;47.988;-4.186;2024-03-08T03:55:04;7.55;;;4.53;;
45033;SDS011;30771;47.988;-4.186;2024-03-08T03:57:31;7.80;;;5.35;;
45033;SDS011;30771;47.988;-4.186;2024-03-08T03:59:57;7.78;;;5.00;;
45033;SDS011;30771;47.988;-4.186;2024-03-08T04:02:25;7.00;;;4.90;;
45033;SDS011;30771;47.988;-4.186;2024-03-08T04:04:53;8.93;;;4.57;;
45033;SDS011;30771;47.988;-4.186;2024-03-08T04:07:21;9.52;;;5.03;;
45033;SDS011;30771;47.988;-4.186;2024-03-08T04:09:47;8.60;;;4.93;;
45033;SDS011;30771;47.988;-4.186;2024-03-08T04:12:14;11.15;;;5.70;;
45033;SDS011;30771;47.988;-4.186;2024-03-08T04:14:42;6.43;;;4.78;;
45033;SDS011;30771;47.988;-4.186;2024-03-08T04:17:09;8.20;;;5.28;;
45033;SDS011;30771;47.988;-4.186;2024-03-08T04:19:35;9.82;;;5.20;;
45033;SDS011;30771;47.988;-4.186;2024-03-08T04:22:02;7.50;;;5.05;;
45033;SDS011;30771;47.988;-4.186;2024-03-08T04:24:29;6.78;;;5.18;;
45033;SDS011;30771;47.988;-4.186;2024-03-08T04:26:57;10.15;;;5.70;;
45033;SDS011;30771;47.988;-4.186;2024-03-08T04:29:25;7.63;;;5.35;;
45033;SDS011;30771;47.988;-4.186;2024-03-08T04:31:52;8.35;;;4.88;;
45033;SDS011;30771;47.988;-4.186;2024-03-08T04:34:22;7.32;;;4.80;;
45033;SDS011;30771;47.988;-4.186;2024-03-08T04:36:49;7.07;;;4.80;;
45033;SDS011;30771;47.988;-4.186;2024-03-08T04:39:16;7.78;;;5.00;;
45033;SDS011;30771;47.988;-4.186;2024-03-08T04:44:11;9.45;;;5.40;;
45033;SDS011;30771;47.988;-4.186;2024-03-08T04:46:39;7.45;;;4.97;;
45033;SDS011;30771;47.988;-4.186;2024-03-08T04:49:06;9.32;;;5.55;;
45033;SDS011;30771;47.988;-4.186;2024-03-08T04:51:33;9.50;;;6.00;;
45033;SDS011;30771;47.988;-4.186;2024-03-08T04:54:00;6.78;;;5.30;;
45033;SDS011;30771;47.988;-4.186;2024-03-08T04:56:27;7.85;;;5.22;;
45033;SDS011;30771;47.988;-4.186;2024-03-08T04:58:54;10.40;;;5.80;;
45033;SDS011;30771;47.988;-4.186;2024-03-08T05:01:20;7.97;;;5.15;;
45033;SDS011;30771;47.988;-4.186;2024-03-08T05:03:48;7.85;;;5.10;;
45033;SDS011;30771;47.988;-4.186;2024-03-08T05:06:16;8.30;;;5.07;;
45033;SDS011;30771;47.988;-4.186;2024-03-08T05:08:43;9.80;;;5.53;;
45033;SDS011;30771;47.988;-4.186;2024-03-08T05:11:10;6.18;;;4.80;;
45033;SDS011;30771;47.988;-4.186;2024-03-08T05:13:37;9.43;;;5.60;;
45033;SDS011;30771;47.988;-4.186;2024-03-08T05:16:04;7.57;;;4.90;;
45033;SDS011;30771;47.988;-4.186;2024-03-08T05:18:30;8.23;;;5.18;;
45033;SDS011;30771;47.988;-4.186;2024-03-08T05:20:58;8.80;;;5.73;;
45033;SDS011;30771;47.988;-4.186;2024-03-08T05:23:25;8.70;;;5.30;;
45033;SDS011;30771;47.988;-4.186;2024-03-08T05:25:52;6.65;;;4.88;;
45033;SDS011;30771;47.988;-4.186;2024-03-08T05:28:19;11.75;;;5.30;;
45033;SDS011;30771;47.988;-4.186;2024-03-08T05:30:46;9.68;;;5.47;;
45033;SDS011;30771;47.988;-4.186;2024-03-08T05:33:13;6.18;;;4.85;;
45033;SDS011;30771;47.988;-4.186;2024-03-08T05:35:41;8.73;;;5.47;;
45033;SDS011;30771;47.988;-4.186;2024-03-08T05:38:08;9.65;;;6.05;;
45033;SDS011;30771;47.988;-4.186;2024-03-08T05:40:34;8.10;;;5.10;;
45033;SDS011;30771;47.988;-4.186;2024-03-08T05:43:01;7.40;;;5.38;;
45033;SDS011;30771;47.988;-4.186;2024-03-08T05:45:28;9.80;;;5.88;;
45033;SDS011;30771;47.988;-4.186;2024-03-08T05:47:54;8.18;;;5.18;;
45033;SDS011;30771;47.988;-4.186;2024-03-08T05:50:21;7.50;;;5.22;;
45033;SDS011;30771;47.988;-4.186;2024-03-08T05:52:48;9.10;;;5.85;;
45033;SDS011;30771;47.988;-4.186;2024-03-08T05:55:16;7.93;;;5.78;;
45033;SDS011;30771;47.988;-4.186;2024-03-08T05:57:42;8.45;;;5.28;;
45033;SDS011;30771;47.988;-4.186;2024-03-08T06:00:10;9.32;;;5.95;;
45033;SDS011;30771;47.988;-4.186;2024-03-08T06:02:38;9.65;;;5.97;;
45033;SDS011;30771;47.988;-4.186;2024-03-08T06:05:08;7.88;;;5.35;;
45033;SDS011;30771;47.988;-4.186;2024-03-08T06:07:37;7.65;;;5.55;;
45033;SDS011;30771;47.988;-4.186;2024-03-08T06:10:08;11.30;;;6.53;;
45033;SDS011;30771;47.988;-4.186;2024-03-08T06:12:39;10.45;;;6.50;;
45033;SDS011;30771;47.988;-4.186;2024-03-08T06:15:08;11.18;;;6.38;;
45033;SDS011;30771;47.988;-4.186;2024-03-08T06:17:36;11.73;;;6.22;;
45033;SDS011;30771;47.988;-4.186;2024-03-08T06:20:03;8.60;;;5.85;;
45033;SDS011;30771;47.988;-4.186;2024-03-08T06:22:37;9.75;;;6.20;;
45033;SDS011;30771;47.988;-4.186;2024-03-08T06:25:10;13.50;;;6.55;;
45033;SDS011;30771;47.988;-4.186;2024-03-08T06:27:43;11.25;;;6.70;;
45033;SDS011;30771;47.988;-4.186;2024-03-08T06:30:10;9.88;;;5.95;;
45033;SDS011;30771;47.988;-4.186;2024-03-08T06:32:37;11.57;;;6.93;;
45033;SDS011;30771;47.988;-4.186;2024-03-08T06:35:04;11.68;;;7.25;;
45033;SDS011;30771;47.988;-4.186;2024-03-08T06:37:32;9.55;;;6.88;;
45033;SDS011;30771;47.988;-4.186;2024-03-08T06:40:00;11.52;;;6.80;;
45033;SDS011;30771;47.988;-4.186;2024-03-08T06:42:27;10.80;;;6.88;;
45033;SDS011;30771;47.988;-4.186;2024-03-08T06:44:54;10.48;;;7.80;;
45033;SDS011;30771;47.988;-4.186;2024-03-08T06:47:26;10.18;;;6.72;;
45033;SDS011;30771;47.988;-4.186;2024-03-08T06:49:53;12.48;;;7.28;;
45033;SDS011;30771;47.988;-4.186;2024-03-08T06:52:19;13.10;;;7.65;;
45033;SDS011;30771;47.988;-4.186;2024-03-08T06:54:46;10.73;;;6.78;;
45033;SDS011;30771;47.988;-4.186;2024-03-08T06:57:13;9.50;;;6.60;;
45033;SDS011;30771;47.988;-4.186;2024-03-08T06:59:40;8.80;;;6.25;;
45033;SDS011;30771;47.988;-4.186;2024-03-08T07:02:07;9.32;;;7.07;;
45033;SDS011;30771;47.988;-4.186;2024-03-08T07:04:35;9.75;;;6.55;;
45033;SDS011;30771;47.988;-4.186;2024-03-08T07:07:04;9.65;;;6.70;;
45033;SDS011;30771;47.988;-4.186;2024-03-08T07:09:31;13.02;;;6.80;;
45033;SDS011;30771;47.988;-4.186;2024-03-08T07:11:58;9.57;;;6.82;;
45033;SDS011;30771;47.988;-4.186;2024-03-08T07:14:25;11.07;;;6.40;;
45033;SDS011;30771;47.988;-4.186;2024-03-08T07:16:52;9.23;;;6.80;;
45033;SDS011;30771;47.988;-4.186;2024-03-08T07:19:19;10.43;;;6.90;;
45033;SDS011;30771;47.988;-4.186;2024-03-08T07:21:45;10.35;;;6.30;;
45033;SDS011;30771;47.988;-4.186;2024-03-08T07:24:13;8.53;;;5.47;;
45033;SDS011;30771;47.988;-4.186;2024-03-08T07:26:43;8.73;;;6.57;;
45033;SDS011;30771;47.988;-4.186;2024-03-08T07:29:10;11.32;;;7.18;;
45033;SDS011;30771;47.988;-4.186;2024-03-08T07:31:37;9.30;;;6.47;;
45033;SDS011;30771;47.988;-4.186;2024-03-08T07:34:03;10.32;;;6.38;;
45033;SDS011;30771;47.988;-4.186;2024-03-08T07:36:34;9.20;;;5.47;;
45033;SDS011;30771;47.988;-4.186;2024-03-08T07:39:03;9.30;;;6.53;;
45033;SDS011;30771;47.988;-4.186;2024-03-08T07:41:38;11.80;;;5.90;;
45033;SDS011;30771;47.988;-4.186;2024-03-08T07:44:07;9.98;;;6.53;;
45033;SDS011;30771;47.988;-4.186;2024-03-08T07:46:33;10.68;;;6.43;;
45033;SDS011;30771;47.988;-4.186;2024-03-08T07:49:00;10.23;;;5.93;;
45033;SDS011;30771;47.988;-4.186;2024-03-08T07:51:27;10.55;;;5.97;;
45033;SDS011;30771;47.988;-4.186;2024-03-08T07:53:54;9.25;;;6.03;;
45033;SDS011;30771;47.988;-4.186;2024-03-08T07:56:26;11.23;;;6.38;;
45033;SDS011;30771;47.988;-4.186;2024-03-08T07:58:52;8.55;;;5.38;;
45033;SDS011;30771;47.988;-4.186;2024-03-08T08:01:19;11.07;;;6.20;;
45033;SDS011;30771;47.988;-4.186;2024-03-08T08:03:46;10.50;;;6.25;;
45033;SDS011;30771;47.988;-4.186;2024-03-08T08:06:15;10.63;;;5.72;;
45033;SDS011;30771;47.988;-4.186;2024-03-08T08:08:42;9.25;;;5.75;;
45033;SDS011;30771;47.988;-4.186;2024-03-08T08:11:09;9.20;;;5.88;;
45033;SDS011;30771;47.988;-4.186;2024-03-08T08:13:38;8.60;;;5.72;;
45033;SDS011;30771;47.988;-4.186;2024-03-08T08:16:05;8.88;;;5.72;;
45033;SDS011;30771;47.988;-4.186;2024-03-08T08:18:33;8.60;;;5.43;;
45033;SDS011;30771;47.988;-4.186;2024-03-08T08:20:59;9.32;;;5.57;;
45033;SDS011;30771;47.988;-4.186;2024-03-08T08:23:29;7.40;;;5.18;;
45033;SDS011;30771;47.988;-4.186;2024-03-08T08:25:56;9.02;;;5.25;;
45033;SDS011;30771;47.988;-4.186;2024-03-08T08:28:23;9.05;;;5.38;;
45033;SDS011;30771;47.988;-4.186;2024-03-08T08:30:51;7.80;;;4.95;;
45033;SDS011;30771;47.988;-4.186;2024-03-08T08:33:17;9.90;;;5.50;;
45033;SDS011;30771;47.988;-4.186;2024-03-08T08:35:44;7.30;;;5.10;;
45033;SDS011;30771;47.988;-4.186;2024-03-08T08:38:11;11.63;;;5.45;;
45033;SDS011;30771;47.988;-4.186;2024-03-08T08:40:39;11.63;;;5.53;;
45033;SDS011;30771;47.988;-4.186;2024-03-08T08:43:06;7.57;;;5.50;;
45033;SDS011;30771;47.988;-4.186;2024-03-08T08:45:33;10.70;;;5.30;;
45033;SDS011;30771;47.988;-4.186;2024-03-08T08:48:00;10.25;;;5.47;;
45033;SDS011;30771;47.988;-4.186;2024-03-08T08:50:27;11.75;;;5.57;;
45033;SDS011;30771;47.988;-4.186;2024-03-08T08:52:55;9.87;;;5.77;;
45033;SDS011;30771;47.988;-4.186;2024-03-08T08:55:22;8.38;;;5.40;;
45033;SDS011;30771;47.988;-4.186;2024-03-08T08:57:53;10.15;;;5.63;;
45033;SDS011;30771;47.988;-4.186;2024-03-08T09:00:20;8.57;;;5.28;;
45033;SDS011;30771;47.988;-4.186;2024-03-08T09:02:48;12.18;;;6.18;;
45033;SDS011;30771;47.988;-4.186;2024-03-08T09:05:15;9.50;;;5.25;;
45033;SDS011;30771;47.988;-4.186;2024-03-08T09:07:44;8.02;;;5.22;;
45033;SDS011;30771;47.988;-4.186;2024-03-08T09:10:11;8.63;;;5.38;;
45033;SDS011;30771;47.988;-4.186;2024-03-08T09:12:41;8.32;;;5.20;;
45033;SDS011;30771;47.988;-4.186;2024-03-08T09:15:08;6.80;;;5.28;;
45033;SDS011;30771;47.988;-4.186;2024-03-08T09:17:38;9.30;;;4.90;;
45033;SDS011;30771;47.988;-4.186;2024-03-08T09:20:08;8.75;;;4.95;;
45033;SDS011;30771;47.988;-4.186;2024-03-08T09:25:04;8.73;;;5.70;;
45033;SDS011;30771;47.988;-4.186;2024-03-08T09:27:31;8.75;;;4.70;;
45033;SDS011;30771;47.988;-4.186;2024-03-08T09:29:58;9.35;;;5.93;;
45033;SDS011;30771;47.988;-4.186;2024-03-08T09:32:24;11.23;;;4.85;;
45033;SDS011;30771;47.988;-4.186;2024-03-08T09:34:53;7.85;;;4.70;;
45033;SDS011;30771;47.988;-4.186;2024-03-08T09:37:19;9.88;;;5.00;;
45033;SDS011;30771;47.988;-4.186;2024-03-08T09:39:46;7.20;;;4.50;;
45033;SDS011;30771;47.988;-4.186;2024-03-08T09:42:14;6.20;;;4.60;;
45033;SDS011;30771;47.988;-4.186;2024-03-08T09:44:45;10.73;;;5.28;;
45033;SDS011;30771;47.988;-4.186;2024-03-08T09:47:13;9.65;;;4.55;;
45033;SDS011;30771;47.988;-4.186;2024-03-08T09:49:41;8.43;;;4.60;;
45033;SDS011;30771;47.988;-4.186;2024-03-08T09:52:09;7.68;;;5.53;;
45033;SDS011;30771;47.988;-4.186;2024-03-08T09:54:39;11.65;;;5.35;;
45033;SDS011;30771;47.988;-4.186;2024-03-08T09:57:06;7.55;;;4.80;;
45033;SDS011;30771;47.988;-4.186;2024-03-08T09:59:35;8.95;;;4.90;;
45033;SDS011;30771;47.988;-4.186;2024-03-08T10:02:02;9.10;;;4.72;;
45033;SDS011;30771;47.988;-4.186;2024-03-08T10:04:29;10.50;;;4.85;;
45033;SDS011;30771;47.988;-4.186;2024-03-08T10:06:57;7.75;;;4.70;;
45033;SDS011;30771;47.988;-4.186;2024-03-08T10:09:25;7.83;;;4.90;;
45033;SDS011;30771;47.988;-4.186;2024-03-08T10:11:56;6.22;;;3.97;;
45033;SDS011;30771;47.988;-4.186;2024-03-08T10:14:24;7.72;;;4.50;;
45033;SDS011;30771;47.988;-4.186;2024-03-08T10:19:20;7.20;;;4.50;;
45033;SDS011;30771;47.988;-4.186;2024-03-08T10:21:52;6.32;;;4.55;;
45033;SDS011;30771;47.988;-4.186;2024-03-08T10:24:20;5.45;;;4.32;;
45033;SDS011;30771;47.988;-4.186;2024-03-08T10:26:47;8.80;;;4.50;;
45033;SDS011;30771;47.988;-4.186;2024-03-08T10:29:14;7.25;;;4.45;;
45033;SDS011;30771;47.988;-4.186;2024-03-08T10:31:44;7.15;;;4.93;;
45033;SDS011;30771;47.988;-4.186;2024-03-08T10:34:11;8.85;;;4.53;;
45033;SDS011;30771;47.988;-4.186;2024-03-08T10:36:39;12.00;;;5.78;;
45033;SDS011;30771;47.988;-4.186;2024-03-08T10:39:14;9.95;;;5.63;;
45033;SDS011;30771;47.988;-4.186;2024-03-08T10:41:52;9.85;;;5.20;;
45033;SDS011;30771;47.988;-4.186;2024-03-08T10:47:17;7.90;;;5.38;;
45033;SDS011;30771;47.988;-4.186;2024-03-08T10:49:55;8.98;;;4.88;;
45033;SDS011;30771;47.988;-4.186;2024-03-08T10:52:31;8.52;;;4.32;;
45033;SDS011;30771;47.988;-4.186;2024-03-08T10:54:58;10.95;;;4.32;;
45033;SDS011;30771;47.988;-4.186;2024-03-08T10:59:53;7.65;;;4.20;;
45033;SDS011;30771;47.988;-4.186;2024-03-08T11:02:25;5.90;;;3.97;;
45033;SDS011;30771;47.988;-4.186;2024-03-08T11:04:53;7.55;;;3.95;;
45033;SDS011;30771;47.988;-4.186;2024-03-08T11:07:23;6.72;;;3.83;;
45033;SDS011;30771;47.988;-4.186;2024-03-08T11:09:54;10.35;;;4.32;;
45033;SDS011;30771;47.988;-4.186;2024-03-08T11:12:28;6.28;;;3.85;;
45033;SDS011;30771;47.988;-4.186;2024-03-08T11:14:57;6.47;;;3.92;;
45033;SDS011;30771;47.988;-4.186;2024-03-08T11:19:57;9.18;;;4.88;;
45033;SDS011;30771;47.988;-4.186;2024-03-08T11:22:32;10.07;;;4.20;;
45033;SDS011;30771;47.988;-4.186;2024-03-08T11:25:03;8.35;;;3.58;;
45033;SDS011;30771;47.988;-4.186;2024-03-08T11:27:36;12.45;;;3.92;;
45033;SDS011;30771;47.988;-4.186;2024-03-08T11:30:04;11.07;;;4.15;;
45033;SDS011;30771;47.988;-4.186;2024-03-08T11:32:44;10.40;;;4.50;;
45033;SDS011;30771;47.988;-4.186;2024-03-08T11:35:22;7.78;;;4.10;;
45033;SDS011;30771;47.988;-4.186;2024-03-08T11:37:52;10.77;;;3.90;;
45033;SDS011;30771;47.988;-4.186;2024-03-08T11:40:18;9.95;;;4.55;;
45033;SDS011;30771;47.988;-4.186;2024-03-08T11:42:47;7.68;;;3.83;;
45033;SDS011;30771;47.988;-4.186;2024-03-08T11:45:15;11.32;;;4.82;;
45033;SDS011;30771;47.988;-4.186;2024-03-08T11:47:44;9.07;;;4.88;;
45033;SDS011;30771;47.988;-4.186;2024-03-08T11:50:15;8.02;;;3.60;;
45033;SDS011;30771;47.988;-4.186;2024-03-08T11:52:43;8.75;;;3.30;;
45033;SDS011;30771;47.988;-4.186;2024-03-08T11:55:10;8.82;;;2.85;;
45033;SDS011;30771;47.988;-4.186;2024-03-08T11:57:39;10.25;;;2.95;;
45033;SDS011;30771;47.988;-4.186;2024-03-08T12:00:06;8.52;;;2.60;;
45033;SDS011;30771;47.988;-4.186;2024-03-08T12:03:00;6.43;;;3.20;;
45033;SDS011;30771;47.988;-4.186;2024-03-08T12:05:31;9.25;;;3.13;;
45033;SDS011;30771;47.988;-4.186;2024-03-08T12:08:00;10.60;;;2.90;;
45033;SDS011;30771;47.988;-4.186;2024-03-08T12:10:33;12.40;;;3.53;;
45033;SDS011;30771;47.988;-4.186;2024-03-08T12:13:01;10.68;;;3.35;;
45033;SDS011;30771;47.988;-4.186;2024-03-08T12:15:30;7.50;;;3.42;;
45033;SDS011;30771;47.988;-4.186;2024-03-08T12:18:00;14.40;;;3.60;;
45033;SDS011;30771;47.988;-4.186;2024-03-08T12:20:28;8.18;;;2.60;;
45033;SDS011;30771;47.988;-4.186;2024-03-08T12:22:58;14.00;;;3.45;;
45033;SDS011;30771;47.988;-4.186;2024-03-08T12:25:35;8.00;;;2.90;;
45033;SDS011;30771;47.988;-4.186;2024-03-08T12:28:08;12.82;;;3.10;;
45033;SDS011;30771;47.988;-4.186;2024-03-08T12:30:47;9.38;;;2.70;;
45033;SDS011;30771;47.988;-4.186;2024-03-08T12:33:15;10.30;;;3.63;;
45033;SDS011;30771;47.988;-4.186;2024-03-08T12:35:50;12.60;;;3.00;;
45033;SDS011;30771;47.988;-4.186;2024-03-08T12:38:21;10.50;;;2.95;;
45033;SDS011;30771;47.988;-4.186;2024-03-08T12:40:58;9.68;;;3.38;;
45033;SDS011;30771;47.988;-4.186;2024-03-08T12:43:25;11.35;;;3.38;;
45033;SDS011;30771;47.988;-4.186;2024-03-08T12:45:52;9.60;;;3.15;;
45033;SDS011;30771;47.988;-4.186;2024-03-08T12:48:19;12.23;;;3.38;;
45033;SDS011;30771;47.988;-4.186;2024-03-08T12:50:47;14.73;;;3.80;;
45033;SDS011;30771;47.988;-4.186;2024-03-08T12:53:14;17.30;;;3.55;;
45033;SDS011;30771;47.988;-4.186;2024-03-08T12:55:41;14.10;;;3.30;;
45033;SDS011;30771;47.988;-4.186;2024-03-08T12:58:08;15.18;;;3.08;;
45033;SDS011;30771;47.988;-4.186;2024-03-08T13:00:35;10.52;;;3.05;;
45033;SDS011;30771;47.988;-4.186;2024-03-08T13:03:09;11.15;;;2.95;;
45033;SDS011;30771;47.988;-4.186;2024-03-08T13:05:38;12.98;;;3.38;;
45033;SDS011;30771;47.988;-4.186;2024-03-08T13:08:06;9.93;;;3.03;;
45033;SDS011;30771;47.988;-4.186;2024-03-08T13:10:39;12.25;;;2.80;;
45033;SDS011;30771;47.988;-4.186;2024-03-08T13:13:10;10.45;;;2.35;;
45033;SDS011;30771;47.988;-4.186;2024-03-08T13:15:41;8.27;;;2.70;;
45033;SDS011;30771;47.988;-4.186;2024-03-08T13:18:08;7.45;;;2.45;;
45033;SDS011;30771;47.988;-4.186;2024-03-08T13:20:36;12.63;;;2.38;;
45033;SDS011;30771;47.988;-4.186;2024-03-08T13:23:13;7.05;;;2.40;;
45033;SDS011;30771;47.988;-4.186;2024-03-08T13:25:40;11.50;;;3.45;;
45033;SDS011;30771;47.988;-4.186;2024-03-08T13:28:07;9.27;;;2.50;;
45033;SDS011;30771;47.988;-4.186;2024-03-08T13:30:35;10.73;;;2.50;;
45033;SDS011;30771;47.988;-4.186;2024-03-08T13:33:02;13.18;;;2.67;;
45033;SDS011;30771;47.988;-4.186;2024-03-08T13:35:31;10.63;;;3.00;;
45033;SDS011;30771;47.988;-4.186;2024-03-08T13:37:59;7.10;;;2.67;;
45033;SDS011;30771;47.988;-4.186;2024-03-08T13:40:29;11.25;;;2.67;;
45033;SDS011;30771;47.988;-4.186;2024-03-08T13:42:57;8.18;;;2.88;;
45033;SDS011;30771;47.988;-4.186;2024-03-08T13:45:26;9.20;;;3.05;;
45033;SDS011;30771;47.988;-4.186;2024-03-08T13:47:55;12.82;;;3.08;;
45033;SDS011;30771;47.988;-4.186;2024-03-08T13:50:23;11.55;;;3.15;;
45033;SDS011;30771;47.988;-4.186;2024-03-08T13:52:50;10.00;;;2.60;;
45033;SDS011;30771;47.988;-4.186;2024-03-08T13:55:20;9.00;;;2.50;;
45033;SDS011;30771;47.988;-4.186;2024-03-08T13:57:54;8.38;;;2.67;;
45033;SDS011;30771;47.988;-4.186;2024-03-08T14:00:21;10.57;;;2.35;;
45033;SDS011;30771;47.988;-4.186;2024-03-08T14:02:49;9.23;;;2.20;;
45033;SDS011;30771;47.988;-4.186;2024-03-08T14:05:16;8.50;;;1.70;;
45033;SDS011;30771;47.988;-4.186;2024-03-08T14:07:45;5.05;;;1.55;;
45033;SDS011;30771;47.988;-4.186;2024-03-08T14:10:16;9.52;;;2.25;;
45033;SDS011;30771;47.988;-4.186;2024-03-08T14:12:47;9.80;;;1.88;;
45033;SDS011;30771;47.988;-4.186;2024-03-08T14:15:15;7.93;;;1.55;;
45033;SDS011;30771;47.988;-4.186;2024-03-08T14:17:43;7.23;;;1.87;;
45033;SDS011;30771;47.988;-4.186;2024-03-08T14:20:13;11.07;;;2.10;;
45033;SDS011;30771;47.988;-4.186;2024-03-08T14:22:41;7.88;;;2.08;;
45033;SDS011;30771;47.988;-4.186;2024-03-08T14:25:07;7.10;;;1.83;;
45033;SDS011;30771;47.988;-4.186;2024-03-08T14:27:44;9.23;;;2.15;;
45033;SDS011;30771;47.988;-4.186;2024-03-08T14:30:12;7.63;;;1.90;;
45033;SDS011;30771;47.988;-4.186;2024-03-08T14:32:40;9.43;;;1.90;;
45033;SDS011;30771;47.988;-4.186;2024-03-08T14:35:08;7.15;;;1.77;;
45033;SDS011;30771;47.988;-4.186;2024-03-08T14:37:37;4.30;;;1.45;;
45033;SDS011;30771;47.988;-4.186;2024-03-08T14:40:05;5.63;;;1.30;;
45033;SDS011;30771;47.988;-4.186;2024-03-08T14:42:32;4.65;;;1.15;;
45033;SDS011;30771;47.988;-4.186;2024-03-08T14:44:59;6.07;;;1.15;;
45033;SDS011;30771;47.988;-4.186;2024-03-08T14:47:26;8.45;;;1.45;;
45033;SDS011;30771;47.988;-4.186;2024-03-08T14:49:53;7.22;;;1.70;;
45033;SDS011;30771;47.988;-4.186;2024-03-08T14:52:22;6.97;;;1.77;;
45033;SDS011;30771;47.988;-4.186;2024-03-08T14:54:55;15.55;;;2.95;;